sensor_id;sensor_type;location;lat;lon;timestamp;P1;durP1;ratioP1;P2;durP2;ratioP2
8683;SDS011;4379;59.744;18.206;2023-08-07T05:38:53;19.05;;;17.52;;
8683;SDS011;4379;59.744;18.206;2023-08-07T05:41:20;18.60;;;17.17;;
8683;SDS011;4379;59.744;18.206;2023-08-07T05:43:47;16.85;;;15.75;;
8683;SDS011;4379;59.744;18.206;2023-08-07T05:46:15;16.00;;;14.75;;
8683;SDS011;4379;59.744;18.206;2023-08-07T05:48:43;16.45;;;15.27;;
8683;SDS011;4379;59.744;18.206;2023-08-07T06:58:24;8.98;;;8.25;;
8683;SDS011;4379;59.744;18.206;2023-08-07T07:00:55;8.95;;;8.52;;
8683;SDS011;4379;59.744;18.206;2023-08-07T07:03:23;8.95;;;8.25;;
8683;SDS011;4379;59.744;18.206;2023-08-07T07:05:55;9.55;;;9.05;;
8683;SDS011;4379;59.744;18.206;2023-08-07T07:12:08;9.63;;;8.82;;
8683;SDS011;4379;59.744;18.206;2023-08-07T07:15:13;9.15;;;8.57;;
8683;SDS011;4379;59.744;18.206;2023-08-07T07:17:41;9.70;;;9.07;;
8683;SDS011;4379;59.744;18.206;2023-08-07T07:20:09;9.77;;;9.10;;
8683;SDS011;4379;59.744;18.206;2023-08-07T07:22:38;10.55;;;9.85;;
8683;SDS011;4379;59.744;18.206;2023-08-07T07:25:06;10.35;;;9.68;;
8683;SDS011;4379;59.744;18.206;2023-08-07T07:27:36;10.45;;;9.85;;
8683;SDS011;4379;59.744;18.206;2023-08-07T07:30:05;9.98;;;9.43;;
8683;SDS011;4379;59.744;18.206;2023-08-07T07:36:59;9.52;;;8.98;;
8683;SDS011;4379;59.744;18.206;2023-08-07T07:39:27;8.90;;;8.30;;
8683;SDS011;4379;59.744;18.206;2023-08-07T07:41:55;9.27;;;8.80;;
8683;SDS011;4379;59.744;18.206;2023-08-07T07:44:23;8.93;;;8.40;;
8683;SDS011;4379;59.744;18.206;2023-08-07T07:46:55;8.20;;;7.78;;
8683;SDS011;4379;59.744;18.206;2023-08-07T07:49:27;9.68;;;8.98;;
8683;SDS011;4379;59.744;18.206;2023-08-07T07:51:59;10.32;;;9.43;;
8683;SDS011;4379;59.744;18.206;2023-08-07T07:54:28;10.00;;;9.40;;
8683;SDS011;4379;59.744;18.206;2023-08-07T07:56:56;11.25;;;10.35;;
8683;SDS011;4379;59.744;18.206;2023-08-07T07:59:28;9.68;;;9.27;;
8683;SDS011;4379;59.744;18.206;2023-08-07T08:01:56;11.13;;;10.40;;
8683;SDS011;4379;59.744;18.206;2023-08-07T08:04:25;11.60;;;10.88;;
8683;SDS011;4379;59.744;18.206;2023-08-07T08:06:53;12.18;;;11.15;;
8683;SDS011;4379;59.744;18.206;2023-08-07T08:09:22;12.75;;;11.95;;
8683;SDS011;4379;59.744;18.206;2023-08-07T08:11:52;11.50;;;10.77;;
8683;SDS011;4379;59.744;18.206;2023-08-07T08:14:21;11.43;;;10.60;;
8683;SDS011;4379;59.744;18.206;2023-08-07T08:16:49;11.85;;;11.15;;
8683;SDS011;4379;59.744;18.206;2023-08-07T08:19:18;12.27;;;11.27;;
8683;SDS011;4379;59.744;18.206;2023-08-07T08:21:49;11.75;;;10.77;;
8683;SDS011;4379;59.744;18.206;2023-08-07T08:24:17;10.73;;;10.15;;
8683;SDS011;4379;59.744;18.206;2023-08-07T08:26:46;10.40;;;9.48;;
8683;SDS011;4379;59.744;18.206;2023-08-07T08:29:14;9.65;;;9.05;;
8683;SDS011;4379;59.744;18.206;2023-08-07T08:31:42;10.07;;;9.38;;
8683;SDS011;4379;59.744;18.206;2023-08-07T08:34:12;11.40;;;10.60;;
8683;SDS011;4379;59.744;18.206;2023-08-07T08:36:39;12.10;;;11.23;;
8683;SDS011;4379;59.744;18.206;2023-08-07T08:39:07;11.52;;;10.73;;
8683;SDS011;4379;59.744;18.206;2023-08-07T08:41:35;11.00;;;10.40;;
8683;SDS011;4379;59.744;18.206;2023-08-07T08:44:04;9.95;;;9.45;;
8683;SDS011;4379;59.744;18.206;2023-08-07T08:46:33;9.82;;;9.23;;
8683;SDS011;4379;59.744;18.206;2023-08-07T08:49:01;10.52;;;9.80;;
8683;SDS011;4379;59.744;18.206;2023-08-07T08:51:32;11.52;;;10.68;;
8683;SDS011;4379;59.744;18.206;2023-08-07T08:54:00;11.13;;;10.23;;
8683;SDS011;4379;59.744;18.206;2023-08-07T08:56:30;11.52;;;10.50;;
8683;SDS011;4379;59.744;18.206;2023-08-07T08:58:58;11.13;;;10.50;;
8683;SDS011;4379;59.744;18.206;2023-08-07T09:01:26;12.13;;;11.30;;
8683;SDS011;4379;59.744;18.206;2023-08-07T09:03:55;11.30;;;10.70;;
8683;SDS011;4379;59.744;18.206;2023-08-07T09:06:23;11.00;;;10.40;;
8683;SDS011;4379;59.744;18.206;2023-08-07T09:08:52;12.43;;;11.32;;
8683;SDS011;4379;59.744;18.206;2023-08-07T09:11:22;11.93;;;11.23;;
8683;SDS011;4379;59.744;18.206;2023-08-07T09:13:50;11.18;;;10.48;;
8683;SDS011;4379;59.744;18.206;2023-08-07T09:16:18;11.73;;;10.82;;
8683;SDS011;4379;59.744;18.206;2023-08-07T09:18:52;12.38;;;11.68;;
8683;SDS011;4379;59.744;18.206;2023-08-07T09:21:21;12.10;;;11.27;;
8683;SDS011;4379;59.744;18.206;2023-08-07T09:23:51;11.82;;;11.13;;
8683;SDS011;4379;59.744;18.206;2023-08-07T09:26:22;11.85;;;11.15;;
8683;SDS011;4379;59.744;18.206;2023-08-07T09:28:53;12.40;;;11.48;;
8683;SDS011;4379;59.744;18.206;2023-08-07T09:31:22;13.05;;;12.23;;
8683;SDS011;4379;59.744;18.206;2023-08-07T09:33:53;12.20;;;11.52;;
8683;SDS011;4379;59.744;18.206;2023-08-07T09:36:23;12.95;;;11.93;;
8683;SDS011;4379;59.744;18.206;2023-08-07T09:38:50;12.77;;;11.88;;
8683;SDS011;4379;59.744;18.206;2023-08-07T09:41:18;12.80;;;11.85;;
8683;SDS011;4379;59.744;18.206;2023-08-07T09:43:47;12.05;;;11.35;;
8683;SDS011;4379;59.744;18.206;2023-08-07T09:46:15;12.90;;;12.10;;
8683;SDS011;4379;59.744;18.206;2023-08-07T09:48:45;13.23;;;12.30;;
8683;SDS011;4379;59.744;18.206;2023-08-07T09:51:13;12.68;;;11.88;;
8683;SDS011;4379;59.744;18.206;2023-08-07T09:53:41;12.93;;;12.02;;
8683;SDS011;4379;59.744;18.206;2023-08-07T09:56:08;12.50;;;11.73;;
8683;SDS011;4379;59.744;18.206;2023-08-07T09:58:37;12.55;;;11.90;;
8683;SDS011;4379;59.744;18.206;2023-08-07T10:01:05;13.25;;;12.23;;
8683;SDS011;4379;59.744;18.206;2023-08-07T10:03:34;11.98;;;11.15;;
8683;SDS011;4379;59.744;18.206;2023-08-07T10:06:03;12.70;;;11.77;;
8683;SDS011;4379;59.744;18.206;2023-08-07T10:08:30;12.07;;;11.38;;
8683;SDS011;4379;59.744;18.206;2023-08-07T10:11:00;12.07;;;11.38;;
8683;SDS011;4379;59.744;18.206;2023-08-07T10:13:29;12.88;;;11.88;;
8683;SDS011;4379;59.744;18.206;2023-08-07T10:16:05;12.82;;;11.95;;
8683;SDS011;4379;59.744;18.206;2023-08-07T10:18:35;12.18;;;11.38;;
8683;SDS011;4379;59.744;18.206;2023-08-07T10:21:04;11.88;;;11.15;;
8683;SDS011;4379;59.744;18.206;2023-08-07T10:23:34;12.80;;;11.75;;
8683;SDS011;4379;59.744;18.206;2023-08-07T10:26:04;12.90;;;11.98;;
8683;SDS011;4379;59.744;18.206;2023-08-07T10:28:35;12.52;;;11.70;;
8683;SDS011;4379;59.744;18.206;2023-08-07T10:31:06;12.48;;;11.68;;
8683;SDS011;4379;59.744;18.206;2023-08-07T10:33:36;12.00;;;11.30;;
8683;SDS011;4379;59.744;18.206;2023-08-07T10:36:07;12.50;;;11.80;;
8683;SDS011;4379;59.744;18.206;2023-08-07T10:38:37;12.45;;;11.68;;
8683;SDS011;4379;59.744;18.206;2023-08-07T10:41:14;12.90;;;12.05;;
8683;SDS011;4379;59.744;18.206;2023-08-07T10:43:42;12.63;;;11.82;;
8683;SDS011;4379;59.744;18.206;2023-08-07T10:46:12;12.95;;;12.05;;
8683;SDS011;4379;59.744;18.206;2023-08-07T10:48:54;13.18;;;12.13;;
8683;SDS011;4379;59.744;18.206;2023-08-07T10:51:29;12.88;;;11.95;;
8683;SDS011;4379;59.744;18.206;2023-08-07T10:54:01;12.82;;;12.10;;
8683;SDS011;4379;59.744;18.206;2023-08-07T10:56:32;13.00;;;12.20;;
8683;SDS011;4379;59.744;18.206;2023-08-07T10:59:09;12.57;;;11.70;;
8683;SDS011;4379;59.744;18.206;2023-08-07T11:04:07;13.93;;;12.75;;
8683;SDS011;4379;59.744;18.206;2023-08-07T11:06:39;13.07;;;12.07;;
8683;SDS011;4379;59.744;18.206;2023-08-07T11:09:08;13.15;;;12.35;;
8683;SDS011;4379;59.744;18.206;2023-08-07T11:11:37;13.18;;;12.55;;
8683;SDS011;4379;59.744;18.206;2023-08-07T11:14:08;12.35;;;11.65;;
8683;SDS011;4379;59.744;18.206;2023-08-07T11:16:37;13.02;;;12.02;;
8683;SDS011;4379;59.744;18.206;2023-08-07T11:19:04;12.55;;;11.80;;
8683;SDS011;4379;59.744;18.206;2023-08-07T11:21:33;13.82;;;12.90;;
8683;SDS011;4379;59.744;18.206;2023-08-07T11:24:02;13.43;;;12.35;;
8683;SDS011;4379;59.744;18.206;2023-08-07T11:26:30;13.82;;;12.88;;
8683;SDS011;4379;59.744;18.206;2023-08-07T11:28:58;12.90;;;12.13;;
8683;SDS011;4379;59.744;18.206;2023-08-07T11:31:25;13.52;;;12.43;;
8683;SDS011;4379;59.744;18.206;2023-08-07T11:33:55;13.13;;;12.25;;
8683;SDS011;4379;59.744;18.206;2023-08-07T11:36:29;13.25;;;12.65;;
8683;SDS011;4379;59.744;18.206;2023-08-07T11:38:59;13.35;;;12.35;;
8683;SDS011;4379;59.744;18.206;2023-08-07T11:41:27;13.68;;;12.80;;
8683;SDS011;4379;59.744;18.206;2023-08-07T11:43:59;12.95;;;12.25;;
8683;SDS011;4379;59.744;18.206;2023-08-07T11:46:27;13.43;;;12.20;;
8683;SDS011;4379;59.744;18.206;2023-08-07T11:48:56;13.45;;;12.65;;
8683;SDS011;4379;59.744;18.206;2023-08-07T11:51:23;12.68;;;11.95;;
8683;SDS011;4379;59.744;18.206;2023-08-07T11:53:51;12.77;;;12.18;;
8683;SDS011;4379;59.744;18.206;2023-08-07T11:56:23;13.73;;;12.65;;
8683;SDS011;4379;59.744;18.206;2023-08-07T11:58:51;13.52;;;12.65;;
8683;SDS011;4379;59.744;18.206;2023-08-07T12:01:21;12.68;;;11.85;;
8683;SDS011;4379;59.744;18.206;2023-08-07T12:03:51;13.07;;;12.23;;
8683;SDS011;4379;59.744;18.206;2023-08-07T12:06:21;13.02;;;12.23;;
8683;SDS011;4379;59.744;18.206;2023-08-07T12:08:54;13.93;;;13.05;;
8683;SDS011;4379;59.744;18.206;2023-08-07T12:11:23;14.27;;;13.05;;
8683;SDS011;4379;59.744;18.206;2023-08-07T12:13:51;13.60;;;12.80;;
8683;SDS011;4379;59.744;18.206;2023-08-07T12:16:19;13.82;;;12.88;;
8683;SDS011;4379;59.744;18.206;2023-08-07T12:18:49;13.32;;;12.52;;
8683;SDS011;4379;59.744;18.206;2023-08-07T12:21:21;13.18;;;12.38;;
8683;SDS011;4379;59.744;18.206;2023-08-07T12:23:54;12.95;;;12.25;;
8683;SDS011;4379;59.744;18.206;2023-08-07T12:26:23;13.55;;;12.63;;
8683;SDS011;4379;59.744;18.206;2023-08-07T12:28:50;13.02;;;12.32;;
8683;SDS011;4379;59.744;18.206;2023-08-07T12:31:19;14.65;;;13.43;;
8683;SDS011;4379;59.744;18.206;2023-08-07T12:33:47;13.25;;;12.32;;
8683;SDS011;4379;59.744;18.206;2023-08-07T12:36:17;13.10;;;12.48;;
8683;SDS011;4379;59.744;18.206;2023-08-07T12:38:46;13.77;;;12.70;;
8683;SDS011;4379;59.744;18.206;2023-08-07T12:41:14;12.48;;;11.73;;
8683;SDS011;4379;59.744;18.206;2023-08-07T12:43:44;12.77;;;11.88;;
8683;SDS011;4379;59.744;18.206;2023-08-07T12:46:13;13.27;;;12.30;;
8683;SDS011;4379;59.744;18.206;2023-08-07T12:48:43;13.95;;;12.82;;
8683;SDS011;4379;59.744;18.206;2023-08-07T12:51:11;13.18;;;12.35;;
8683;SDS011;4379;59.744;18.206;2023-08-07T12:53:39;12.70;;;11.65;;
8683;SDS011;4379;59.744;18.206;2023-08-07T12:56:09;13.00;;;12.02;;
8683;SDS011;4379;59.744;18.206;2023-08-07T12:58:37;12.98;;;12.30;;
8683;SDS011;4379;59.744;18.206;2023-08-07T13:01:08;12.60;;;11.75;;
8683;SDS011;4379;59.744;18.206;2023-08-07T13:03:37;12.90;;;12.05;;
8683;SDS011;4379;59.744;18.206;2023-08-07T13:06:04;12.45;;;11.70;;
8683;SDS011;4379;59.744;18.206;2023-08-07T13:08:34;12.88;;;12.15;;
8683;SDS011;4379;59.744;18.206;2023-08-07T13:11:02;12.07;;;11.48;;
8683;SDS011;4379;59.744;18.206;2023-08-07T13:13:30;12.68;;;11.73;;
8683;SDS011;4379;59.744;18.206;2023-08-07T13:15:57;13.07;;;12.23;;
8683;SDS011;4379;59.744;18.206;2023-08-07T13:18:25;13.25;;;12.45;;
8683;SDS011;4379;59.744;18.206;2023-08-07T13:20:54;13.45;;;12.48;;
8683;SDS011;4379;59.744;18.206;2023-08-07T13:23:23;13.23;;;12.32;;
8683;SDS011;4379;59.744;18.206;2023-08-07T13:25:53;12.32;;;11.43;;
8683;SDS011;4379;59.744;18.206;2023-08-07T13:28:21;12.95;;;11.90;;
8683;SDS011;4379;59.744;18.206;2023-08-07T13:30:48;12.50;;;11.88;;
8683;SDS011;4379;59.744;18.206;2023-08-07T13:33:17;13.95;;;13.05;;
8683;SDS011;4379;59.744;18.206;2023-08-07T13:35:47;14.52;;;13.63;;
8683;SDS011;4379;59.744;18.206;2023-08-07T13:38:14;14.27;;;13.57;;
8683;SDS011;4379;59.744;18.206;2023-08-07T13:40:45;14.30;;;13.30;;
8683;SDS011;4379;59.744;18.206;2023-08-07T13:43:12;15.10;;;14.07;;
8683;SDS011;4379;59.744;18.206;2023-08-07T13:45:40;13.90;;;13.20;;
8683;SDS011;4379;59.744;18.206;2023-08-07T13:48:08;15.13;;;13.93;;
8683;SDS011;4379;59.744;18.206;2023-08-07T13:50:36;13.88;;;13.18;;
8683;SDS011;4379;59.744;18.206;2023-08-07T13:53:08;14.60;;;13.60;;
8683;SDS011;4379;59.744;18.206;2023-08-07T13:55:40;15.73;;;14.73;;
8683;SDS011;4379;59.744;18.206;2023-08-07T13:58:08;14.15;;;13.05;;
8683;SDS011;4379;59.744;18.206;2023-08-07T14:00:36;13.88;;;13.05;;
8683;SDS011;4379;59.744;18.206;2023-08-07T14:03:05;14.75;;;13.60;;
8683;SDS011;4379;59.744;18.206;2023-08-07T14:05:33;14.10;;;13.30;;
8683;SDS011;4379;59.744;18.206;2023-08-07T14:08:01;14.43;;;13.63;;
8683;SDS011;4379;59.744;18.206;2023-08-07T14:10:29;14.75;;;13.80;;
8683;SDS011;4379;59.744;18.206;2023-08-07T14:12:57;14.35;;;13.45;;
8683;SDS011;4379;59.744;18.206;2023-08-07T14:15:24;15.18;;;14.10;;
8683;SDS011;4379;59.744;18.206;2023-08-07T14:17:52;14.32;;;13.43;;
8683;SDS011;4379;59.744;18.206;2023-08-07T14:20:20;15.80;;;14.55;;
8683;SDS011;4379;59.744;18.206;2023-08-07T14:22:49;13.80;;;12.70;;
8683;SDS011;4379;59.744;18.206;2023-08-07T14:25:17;15.73;;;14.43;;
8683;SDS011;4379;59.744;18.206;2023-08-07T14:27:45;15.10;;;14.02;;
8683;SDS011;4379;59.744;18.206;2023-08-07T14:30:12;14.07;;;13.25;;
8683;SDS011;4379;59.744;18.206;2023-08-07T14:32:41;14.43;;;13.32;;
8683;SDS011;4379;59.744;18.206;2023-08-07T14:35:13;14.85;;;13.85;;
8683;SDS011;4379;59.744;18.206;2023-08-07T14:37:41;16.00;;;14.85;;
8683;SDS011;4379;59.744;18.206;2023-08-07T14:40:08;13.50;;;12.52;;
8683;SDS011;4379;59.744;18.206;2023-08-07T14:42:36;15.30;;;14.27;;
8683;SDS011;4379;59.744;18.206;2023-08-07T14:45:04;15.48;;;14.27;;
8683;SDS011;4379;59.744;18.206;2023-08-07T14:47:32;14.15;;;13.27;;
8683;SDS011;4379;59.744;18.206;2023-08-07T14:50:00;15.00;;;13.90;;
8683;SDS011;4379;59.744;18.206;2023-08-07T14:52:27;14.75;;;13.65;;
8683;SDS011;4379;59.744;18.206;2023-08-07T14:54:58;13.02;;;12.32;;
8683;SDS011;4379;59.744;18.206;2023-08-07T14:57:25;14.43;;;13.50;;
8683;SDS011;4379;59.744;18.206;2023-08-07T14:59:53;13.75;;;13.05;;
8683;SDS011;4379;59.744;18.206;2023-08-07T15:02:20;13.80;;;13.00;;
8683;SDS011;4379;59.744;18.206;2023-08-07T15:04:48;14.18;;;13.27;;
8683;SDS011;4379;59.744;18.206;2023-08-07T15:07:17;14.23;;;13.38;;
8683;SDS011;4379;59.744;18.206;2023-08-07T15:09:47;13.50;;;12.80;;
8683;SDS011;4379;59.744;18.206;2023-08-07T15:12:21;14.18;;;13.30;;
8683;SDS011;4379;59.744;18.206;2023-08-07T15:14:51;14.77;;;13.68;;
8683;SDS011;4379;59.744;18.206;2023-08-07T15:20:18;15.40;;;14.20;;
8683;SDS011;4379;59.744;18.206;2023-08-07T15:22:47;15.38;;;14.45;;
8683;SDS011;4379;59.744;18.206;2023-08-07T15:25:15;15.68;;;14.48;;
8683;SDS011;4379;59.744;18.206;2023-08-07T15:27:43;15.45;;;14.48;;
8683;SDS011;4379;59.744;18.206;2023-08-07T15:30:11;15.10;;;14.07;;
8683;SDS011;4379;59.744;18.206;2023-08-07T15:32:39;15.10;;;14.30;;
8683;SDS011;4379;59.744;18.206;2023-08-07T15:35:09;15.43;;;14.50;;
8683;SDS011;4379;59.744;18.206;2023-08-07T15:37:37;15.32;;;14.30;;
8683;SDS011;4379;59.744;18.206;2023-08-07T15:40:05;15.77;;;14.77;;
8683;SDS011;4379;59.744;18.206;2023-08-07T15:42:36;15.80;;;14.50;;
8683;SDS011;4379;59.744;18.206;2023-08-07T15:45:04;15.65;;;14.75;;
8683;SDS011;4379;59.744;18.206;2023-08-07T15:47:32;15.95;;;14.57;;
8683;SDS011;4379;59.744;18.206;2023-08-07T15:50:01;16.45;;;15.15;;
8683;SDS011;4379;59.744;18.206;2023-08-07T15:52:28;16.20;;;14.88;;
8683;SDS011;4379;59.744;18.206;2023-08-07T15:54:57;16.70;;;15.57;;
8683;SDS011;4379;59.744;18.206;2023-08-07T15:57:25;16.08;;;14.90;;
8683;SDS011;4379;59.744;18.206;2023-08-07T15:59:57;15.15;;;14.35;;
8683;SDS011;4379;59.744;18.206;2023-08-07T16:02:26;15.65;;;14.55;;
8683;SDS011;4379;59.744;18.206;2023-08-07T16:04:53;14.93;;;14.13;;
8683;SDS011;4379;59.744;18.206;2023-08-07T16:07:21;16.48;;;15.30;;
8683;SDS011;4379;59.744;18.206;2023-08-07T16:09:49;16.05;;;14.60;;
8683;SDS011;4379;59.744;18.206;2023-08-07T16:12:17;16.23;;;15.23;;
8683;SDS011;4379;59.744;18.206;2023-08-07T16:14:45;17.20;;;15.85;;
8683;SDS011;4379;59.744;18.206;2023-08-07T16:17:15;17.52;;;16.25;;
8683;SDS011;4379;59.744;18.206;2023-08-07T16:19:43;16.45;;;15.20;;
8683;SDS011;4379;59.744;18.206;2023-08-07T16:22:11;16.83;;;15.63;;
8683;SDS011;4379;59.744;18.206;2023-08-07T16:24:39;15.43;;;14.45;;
8683;SDS011;4379;59.744;18.206;2023-08-07T16:27:13;16.73;;;15.45;;
8683;SDS011;4379;59.744;18.206;2023-08-07T16:29:41;15.32;;;14.43;;
8683;SDS011;4379;59.744;18.206;2023-08-07T16:32:08;16.60;;;15.40;;
8683;SDS011;4379;59.744;18.206;2023-08-07T16:34:36;16.35;;;14.98;;
8683;SDS011;4379;59.744;18.206;2023-08-07T16:37:03;15.80;;;14.80;;
8683;SDS011;4379;59.744;18.206;2023-08-07T16:39:31;15.93;;;14.85;;
8683;SDS011;4379;59.744;18.206;2023-08-07T16:41:59;15.52;;;14.48;;
8683;SDS011;4379;59.744;18.206;2023-08-07T16:44:27;15.20;;;14.30;;
8683;SDS011;4379;59.744;18.206;2023-08-07T16:46:54;16.88;;;15.50;;
8683;SDS011;4379;59.744;18.206;2023-08-07T16:49:23;15.18;;;14.27;;
8683;SDS011;4379;59.744;18.206;2023-08-07T16:51:50;14.45;;;13.55;;
8683;SDS011;4379;59.744;18.206;2023-08-07T16:54:22;15.65;;;14.70;;
8683;SDS011;4379;59.744;18.206;2023-08-07T16:56:49;15.48;;;14.23;;
8683;SDS011;4379;59.744;18.206;2023-08-07T16:59:17;15.00;;;13.98;;
8683;SDS011;4379;59.744;18.206;2023-08-07T17:01:49;13.93;;;12.98;;
8683;SDS011;4379;59.744;18.206;2023-08-07T17:04:17;12.73;;;12.02;;
8683;SDS011;4379;59.744;18.206;2023-08-07T17:06:45;13.05;;;12.15;;
8683;SDS011;4379;59.744;18.206;2023-08-07T17:09:13;11.55;;;10.95;;
8683;SDS011;4379;59.744;18.206;2023-08-07T17:11:41;11.93;;;11.10;;
8683;SDS011;4379;59.744;18.206;2023-08-07T17:14:09;11.52;;;10.57;;
8683;SDS011;4379;59.744;18.206;2023-08-07T17:16:37;11.95;;;11.13;;
8683;SDS011;4379;59.744;18.206;2023-08-07T17:19:05;10.80;;;10.30;;
8683;SDS011;4379;59.744;18.206;2023-08-07T17:21:32;11.32;;;10.75;;
8683;SDS011;4379;59.744;18.206;2023-08-07T17:24:01;11.88;;;11.13;;
8683;SDS011;4379;59.744;18.206;2023-08-07T17:26:29;11.57;;;10.77;;
8683;SDS011;4379;59.744;18.206;2023-08-07T17:28:56;10.63;;;10.05;;
8683;SDS011;4379;59.744;18.206;2023-08-07T17:31:27;10.57;;;9.88;;
8683;SDS011;4379;59.744;18.206;2023-08-07T17:33:56;9.95;;;9.38;;
8683;SDS011;4379;59.744;18.206;2023-08-07T17:36:24;10.05;;;9.55;;
8683;SDS011;4379;59.744;18.206;2023-08-07T17:38:55;9.73;;;9.23;;
8683;SDS011;4379;59.744;18.206;2023-08-07T17:41:23;10.50;;;9.88;;
8683;SDS011;4379;59.744;18.206;2023-08-07T17:43:51;10.85;;;10.18;;
8683;SDS011;4379;59.744;18.206;2023-08-07T17:46:18;10.82;;;10.13;;
8683;SDS011;4379;59.744;18.206;2023-08-07T17:48:46;11.25;;;10.35;;
8683;SDS011;4379;59.744;18.206;2023-08-07T17:51:14;9.80;;;9.30;;
8683;SDS011;4379;59.744;18.206;2023-08-07T17:53:42;10.45;;;9.57;;
8683;SDS011;4379;59.744;18.206;2023-08-07T17:56:10;11.27;;;10.70;;
8683;SDS011;4379;59.744;18.206;2023-08-07T17:58:38;12.82;;;11.85;;
8683;SDS011;4379;59.744;18.206;2023-08-07T18:01:05;12.23;;;11.07;;
8683;SDS011;4379;59.744;18.206;2023-08-07T18:03:35;12.45;;;11.48;;
8683;SDS011;4379;59.744;18.206;2023-08-07T18:06:02;11.65;;;11.00;;
8683;SDS011;4379;59.744;18.206;2023-08-07T18:08:30;12.43;;;11.68;;
8683;SDS011;4379;59.744;18.206;2023-08-07T18:10:58;12.43;;;11.82;;
8683;SDS011;4379;59.744;18.206;2023-08-07T18:13:26;12.85;;;12.05;;
8683;SDS011;4379;59.744;18.206;2023-08-07T18:15:54;12.75;;;11.95;;
8683;SDS011;4379;59.744;18.206;2023-08-07T18:18:23;12.63;;;11.80;;
8683;SDS011;4379;59.744;18.206;2023-08-07T18:20:52;12.48;;;11.70;;
8683;SDS011;4379;59.744;18.206;2023-08-07T18:23:25;14.90;;;13.77;;
8683;SDS011;4379;59.744;18.206;2023-08-07T18:25:57;13.50;;;12.40;;
8683;SDS011;4379;59.744;18.206;2023-08-07T18:28:26;12.68;;;11.98;;
8683;SDS011;4379;59.744;18.206;2023-08-07T18:31:01;13.95;;;13.18;;
8683;SDS011;4379;59.744;18.206;2023-08-07T18:33:29;14.25;;;13.38;;
8683;SDS011;4379;59.744;18.206;2023-08-07T18:35:59;13.05;;;12.45;;
8683;SDS011;4379;59.744;18.206;2023-08-07T18:41:46;14.82;;;13.70;;
8683;SDS011;4379;59.744;18.206;2023-08-07T18:44:15;14.02;;;13.13;;
8683;SDS011;4379;59.744;18.206;2023-08-07T18:46:44;13.30;;;12.48;;
8683;SDS011;4379;59.744;18.206;2023-08-07T18:49:18;13.88;;;12.95;;
8683;SDS011;4379;59.744;18.206;2023-08-07T18:51:56;12.98;;;12.20;;
8683;SDS011;4379;59.744;18.206;2023-08-07T18:54:24;13.27;;;12.30;;
8683;SDS011;4379;59.744;18.206;2023-08-07T18:56:52;14.10;;;13.30;;
8683;SDS011;4379;59.744;18.206;2023-08-07T18:59:21;13.45;;;12.63;;
8683;SDS011;4379;59.744;18.206;2023-08-07T19:01:48;13.88;;;13.07;;
8683;SDS011;4379;59.744;18.206;2023-08-07T19:04:16;13.00;;;12.30;;
8683;SDS011;4379;59.744;18.206;2023-08-07T19:06:43;13.35;;;12.35;;
8683;SDS011;4379;59.744;18.206;2023-08-07T19:09:14;15.45;;;14.45;;
8683;SDS011;4379;59.744;18.206;2023-08-07T19:11:42;16.08;;;15.27;;
8683;SDS011;4379;59.744;18.206;2023-08-07T19:14:10;16.75;;;15.52;;
8683;SDS011;4379;59.744;18.206;2023-08-07T19:16:38;17.98;;;16.45;;
8683;SDS011;4379;59.744;18.206;2023-08-07T19:19:12;18.10;;;17.00;;
8683;SDS011;4379;59.744;18.206;2023-08-07T19:21:41;18.65;;;17.35;;
8683;SDS011;4379;59.744;18.206;2023-08-07T19:24:12;19.90;;;18.40;;
8683;SDS011;4379;59.744;18.206;2023-08-07T19:26:46;18.75;;;17.48;;
8683;SDS011;4379;59.744;18.206;2023-08-07T19:29:19;19.08;;;17.98;;
8683;SDS011;4379;59.744;18.206;2023-08-07T19:31:48;20.10;;;18.80;;
8683;SDS011;4379;59.744;18.206;2023-08-07T19:34:17;20.38;;;18.77;;
8683;SDS011;4379;59.744;18.206;2023-08-07T19:36:44;18.20;;;16.75;;
8683;SDS011;4379;59.744;18.206;2023-08-07T19:39:13;17.33;;;16.27;;
8683;SDS011;4379;59.744;18.206;2023-08-07T19:41:42;17.20;;;15.75;;
8683;SDS011;4379;59.744;18.206;2023-08-07T19:44:11;18.48;;;16.95;;
8683;SDS011;4379;59.744;18.206;2023-08-07T19:46:39;17.40;;;16.20;;
8683;SDS011;4379;59.744;18.206;2023-08-07T19:49:07;17.02;;;15.90;;
8683;SDS011;4379;59.744;18.206;2023-08-07T19:51:35;17.63;;;16.23;;
8683;SDS011;4379;59.744;18.206;2023-08-07T19:54:02;16.17;;;14.98;;
8683;SDS011;4379;59.744;18.206;2023-08-07T19:56:32;15.60;;;14.40;;
8683;SDS011;4379;59.744;18.206;2023-08-07T19:59:02;14.88;;;13.90;;
8683;SDS011;4379;59.744;18.206;2023-08-07T20:01:32;16.38;;;15.20;;
8683;SDS011;4379;59.744;18.206;2023-08-07T20:04:00;16.42;;;15.18;;
8683;SDS011;4379;59.744;18.206;2023-08-07T20:06:28;15.93;;;14.70;;
8683;SDS011;4379;59.744;18.206;2023-08-07T20:08:56;15.52;;;14.63;;
8683;SDS011;4379;59.744;18.206;2023-08-07T20:11:25;15.48;;;14.57;;
8683;SDS011;4379;59.744;18.206;2023-08-07T20:13:53;16.02;;;14.95;;
8683;SDS011;4379;59.744;18.206;2023-08-07T20:16:20;14.90;;;13.90;;
8683;SDS011;4379;59.744;18.206;2023-08-07T20:18:48;14.95;;;14.05;;
8683;SDS011;4379;59.744;18.206;2023-08-07T20:21:16;15.05;;;14.15;;
8683;SDS011;4379;59.744;18.206;2023-08-07T20:23:45;14.85;;;13.95;;
8683;SDS011;4379;59.744;18.206;2023-08-07T20:26:12;12.20;;;11.48;;
8683;SDS011;4379;59.744;18.206;2023-08-07T20:28:40;12.32;;;11.50;;
8683;SDS011;4379;59.744;18.206;2023-08-07T20:31:08;13.10;;;12.20;;
8683;SDS011;4379;59.744;18.206;2023-08-07T20:33:35;11.93;;;11.23;;
8683;SDS011;4379;59.744;18.206;2023-08-07T20:36:04;12.02;;;11.32;;
8683;SDS011;4379;59.744;18.206;2023-08-07T20:38:32;11.02;;;10.48;;
8683;SDS011;4379;59.744;18.206;2023-08-07T20:41:00;11.30;;;10.43;;
8683;SDS011;4379;59.744;18.206;2023-08-07T20:43:27;10.55;;;9.85;;
8683;SDS011;4379;59.744;18.206;2023-08-07T20:45:55;9.73;;;9.18;;
8683;SDS011;4379;59.744;18.206;2023-08-07T20:48:22;9.68;;;9.07;;
8683;SDS011;4379;59.744;18.206;2023-08-07T20:50:50;8.93;;;8.43;;
8683;SDS011;4379;59.744;18.206;2023-08-07T20:53:18;9.27;;;8.68;;
8683;SDS011;4379;59.744;18.206;2023-08-07T20:55:46;8.70;;;8.10;;
8683;SDS011;4379;59.744;18.206;2023-08-07T20:58:14;8.20;;;7.70;;
8683;SDS011;4379;59.744;18.206;2023-08-07T21:00:41;7.90;;;7.50;;
8683;SDS011;4379;59.744;18.206;2023-08-07T21:03:09;7.75;;;7.35;;
8683;SDS011;4379;59.744;18.206;2023-08-07T21:05:36;7.88;;;7.47;;
8683;SDS011;4379;59.744;18.206;2023-08-07T21:08:04;7.90;;;7.28;;
8683;SDS011;4379;59.744;18.206;2023-08-07T21:10:34;8.00;;;7.35;;
8683;SDS011;4379;59.744;18.206;2023-08-07T21:13:02;8.27;;;7.75;;
8683;SDS011;4379;59.744;18.206;2023-08-07T21:15:30;7.70;;;7.28;;
8683;SDS011;4379;59.744;18.206;2023-08-07T21:17:58;8.30;;;7.70;;
8683;SDS011;4379;59.744;18.206;2023-08-07T21:20:25;8.10;;;7.53;;
8683;SDS011;4379;59.744;18.206;2023-08-07T21:22:53;8.05;;;7.57;;
8683;SDS011;4379;59.744;18.206;2023-08-07T21:25:21;6.50;;;6.10;;
8683;SDS011;4379;59.744;18.206;2023-08-07T21:27:51;5.65;;;5.32;;
8683;SDS011;4379;59.744;18.206;2023-08-07T21:30:20;5.90;;;5.60;;
8683;SDS011;4379;59.744;18.206;2023-08-07T21:32:47;6.03;;;5.38;;
8683;SDS011;4379;59.744;18.206;2023-08-07T21:35:17;5.63;;;5.20;;
8683;SDS011;4379;59.744;18.206;2023-08-07T21:37:45;4.80;;;4.50;;
8683;SDS011;4379;59.744;18.206;2023-08-07T21:40:13;5.13;;;4.72;;
8683;SDS011;4379;59.744;18.206;2023-08-07T21:42:41;5.28;;;4.78;;
8683;SDS011;4379;59.744;18.206;2023-08-07T21:45:09;4.65;;;4.25;;
8683;SDS011;4379;59.744;18.206;2023-08-07T21:47:37;4.10;;;3.85;;
8683;SDS011;4379;59.744;18.206;2023-08-07T21:50:08;4.55;;;4.25;;